Time;durP1;ratioP1;P1;durP2;ratioP2;P2;SDS_P1;SDS_P2;PMS_P1;PMS_P2;Temp;Humidity;BMP_temperature;BMP_pressure;BME280_temperature;BME280_humidity;BME280_pressure;Samples;Min_cycle;Max_cycle;Signal;HPM_P1;HPM_P2
2022/11/26 00:00:56;;;;;;;14.65;5.55;;;;;;;;;;5033873;28;20025;-74
2022/11/26 00:03:22;;;;;;;13.65;5.50;;;;;;;;;;5033725;28;20029;-75
2022/11/26 00:05:50;;;;;;;16.98;5.68;;;;;;;;;;5033576;28;20029;-75
2022/11/26 00:08:16;;;;;;;17.88;6.32;;;;;;;;;;5033596;28;20064;-74
2022/11/26 00:10:42;;;;;;;16.95;5.90;;;;;;;;;;5033918;28;20437;-74
2022/11/26 00:13:16;;;;;;;14.20;5.95;;;;;;;;;;5033529;28;20498;-74
2022/11/26 00:15:42;;;;;;;14.35;6.05;;;;;;;;;;5033742;28;20025;-75
2022/11/26 00:18:08;;;;;;;15.32;6.18;;;;;;;;;;5033416;28;20455;-74
2022/11/26 00:20:34;;;;;;;15.00;6.72;;;;;;;;;;5033409;28;20030;-74
2022/11/26 00:23:02;;;;;;;28.45;6.55;;;;;;;;;;5033104;28;20075;-74
2022/11/26 00:25:32;;;;;;;17.85;5.45;;;;;;;;;;5033417;28;20026;-74
2022/11/26 00:27:59;;;;;;;14.75;5.93;;;;;;;;;;5032950;28;20166;-75
2022/11/26 00:30:26;;;;;;;16.08;5.63;;;;;;;;;;5033286;28;20038;-74
2022/11/26 00:32:53;;;;;;;21.77;6.97;;;;;;;;;;5030184;28;20108;-74
2022/11/26 00:35:19;;;;;;;17.05;6.47;;;;;;;;;;5032839;28;20037;-74
2022/11/26 00:37:47;;;;;;;18.42;6.38;;;;;;;;;;5032733;28;20026;-75
2022/11/26 00:40:27;;;;;;;16.80;6.65;;;;;;;;;;5033071;28;20025;-75
2022/11/26 00:42:53;;;;;;;15.48;6.70;;;;;;;;;;5033258;28;20029;-74
2022/11/26 00:45:21;;;;;;;15.27;5.70;;;;;;;;;;5033091;28;20071;-75
2022/11/26 00:47:47;;;;;;;17.33;5.93;;;;;;;;;;5033026;28;20030;-75
2022/11/26 00:50:14;;;;;;;19.65;6.05;;;;;;;;;;5032775;28;20057;-74
2022/11/26 00:52:40;;;;;;;17.88;6.38;;;;;;;;;;5032701;28;20480;-74
2022/11/26 00:55:09;;;;;;;16.33;5.80;;;;;;;;;;5032662;28;20041;-75
2022/11/26 00:57:35;;;;;;;18.88;5.80;;;;;;;;;;5032504;28;20121;-74
2022/11/26 01:00:02;;;;;;;21.58;5.88;;;;;;;;;;5032555;28;20029;-75
2022/11/26 01:02:28;;;;;;;14.68;5.38;;;;;;;;;;5031554;28;20025;-75
2022/11/26 01:04:54;;;;;;;13.18;5.68;;;;;;;;;;5032372;28;20026;-75
2022/11/26 01:07:20;;;;;;;15.50;5.57;;;;;;;;;;5014573;28;20030;-74
2022/11/26 01:09:47;;;;;;;18.20;5.65;;;;;;;;;;5032520;28;20034;-75
2022/11/26 01:12:14;;;;;;;15.43;5.75;;;;;;;;;;5032424;28;20036;-74
2022/11/26 01:14:40;;;;;;;16.35;4.80;;;;;;;;;;5032404;28;20029;-74
2022/11/26 01:17:09;;;;;;;13.95;5.80;;;;;;;;;;5032288;28;20468;-75
2022/11/26 01:19:35;;;;;;;11.70;5.40;;;;;;;;;;5014588;28;20079;-75
2022/11/26 01:22:01;;;;;;;12.02;5.07;;;;;;;;;;5032087;28;20060;-74
2022/11/26 01:24:27;;;;;;;17.40;5.70;;;;;;;;;;5032154;28;20041;-74
2022/11/26 01:26:53;;;;;;;11.82;5.70;;;;;;;;;;5032449;28;20049;-75
2022/11/26 01:29:19;;;;;;;15.15;5.78;;;;;;;;;;5032233;28;20448;-74
2022/11/26 01:31:46;;;;;;;14.38;5.50;;;;;;;;;;5029986;28;20037;-74
2022/11/26 01:34:12;;;;;;;12.80;4.90;;;;;;;;;;5012776;28;20041;-75
2022/11/26 01:36:39;;;;;;;17.13;5.60;;;;;;;;;;5012334;28;20037;-75
2022/11/26 01:39:21;;;;;;;16.10;6.05;;;;;;;;;;5012509;28;20334;-74
2022/11/26 01:41:59;;;;;;;21.05;5.88;;;;;;;;;;5012450;28;20029;-75
2022/11/26 01:44:26;;;;;;;16.08;5.85;;;;;;;;;;5012392;28;20428;-75
2022/11/26 01:46:52;;;;;;;18.70;6.38;;;;;;;;;;5012303;28;20071;-75
2022/11/26 01:49:22;;;;;;;16.75;6.32;;;;;;;;;;5012267;28;20034;-74
2022/11/26 01:51:52;;;;;;;16.42;6.15;;;;;;;;;;5028817;28;20029;-74
2022/11/26 01:54:19;;;;;;;19.77;5.93;;;;;;;;;;5031852;28;20044;-74
2022/11/26 01:56:50;;;;;;;11.50;5.90;;;;;;;;;;5031820;28;20021;-74
2022/11/26 01:59:19;;;;;;;22.23;6.47;;;;;;;;;;5031853;28;20022;-74
2022/11/26 02:01:46;;;;;;;12.80;5.80;;;;;;;;;;5031724;28;20025;-75
2022/11/26 02:04:12;;;;;;;19.75;5.80;;;;;;;;;;5031673;28;20148;-74
2022/11/26 02:06:38;;;;;;;15.70;6.60;;;;;;;;;;5031578;28;20147;-74
2022/11/26 02:09:06;;;;;;;17.08;6.30;;;;;;;;;;5031540;28;20054;-74
2022/11/26 02:11:32;;;;;;;17.13;6.30;;;;;;;;;;5031674;28;20086;-75
2022/11/26 02:14:00;;;;;;;16.77;6.50;;;;;;;;;;5031316;28;20061;-74
2022/11/26 02:16:27;;;;;;;19.60;7.68;;;;;;;;;;5031554;28;20040;-74
2022/11/26 02:19:04;;;;;;;19.80;7.82;;;;;;;;;;5031604;28;20024;-75
2022/11/26 02:21:33;;;;;;;18.48;6.75;;;;;;;;;;5029454;28;20032;-74
2022/11/26 02:24:18;;;;;;;33.97;8.93;;;;;;;;;;4994064;28;20030;-75
2022/11/26 02:26:44;;;;;;;19.35;7.93;;;;;;;;;;5015259;28;20148;-74
2022/11/26 02:29:10;;;;;;;15.43;7.72;;;;;;;;;;5031411;28;20021;-74
2022/11/26 02:31:42;;;;;;;22.73;8.05;;;;;;;;;;5029508;28;20036;-74
2022/11/26 02:34:15;;;;;;;20.33;8.15;;;;;;;;;;5015329;28;20079;-74
2022/11/26 02:36:47;;;;;;;24.45;8.95;;;;;;;;;;5011664;28;20084;-74
2022/11/26 02:39:18;;;;;;;26.02;9.23;;;;;;;;;;5012003;28;20029;-75
2022/11/26 02:41:49;;;;;;;15.38;7.85;;;;;;;;;;5011787;28;20026;-75
2022/11/26 02:44:16;;;;;;;21.13;7.95;;;;;;;;;;5011660;28;20097;-75
2022/11/26 02:46:44;;;;;;;25.48;8.30;;;;;;;;;;4993974;28;20018;-74
2022/11/26 02:49:12;;;;;;;20.23;8.60;;;;;;;;;;5011574;28;20028;-75
2022/11/26 02:51:38;;;;;;;23.38;8.35;;;;;;;;;;5026911;28;20022;-74
2022/11/26 02:54:05;;;;;;;21.75;8.30;;;;;;;;;;5031621;28;20045;-75
2022/11/26 02:56:31;;;;;;;21.65;8.18;;;;;;;;;;5031221;28;20038;-75
2022/11/26 02:58:58;;;;;;;22.10;8.88;;;;;;;;;;5031304;28;20360;-74
2022/11/26 03:01:30;;;;;;;27.98;10.15;;;;;;;;;;5031388;28;20037;-75
2022/11/26 03:03:58;;;;;;;34.22;10.30;;;;;;;;;;5031093;28;20049;-74
2022/11/26 03:06:27;;;;;;;23.38;10.38;;;;;;;;;;5030950;28;20100;-75
2022/11/26 03:08:54;;;;;;;29.50;10.80;;;;;;;;;;5013087;28;20100;-75
2022/11/26 03:11:20;;;;;;;24.13;11.10;;;;;;;;;;5031142;28;20021;-75
2022/11/26 03:13:47;;;;;;;24.33;10.02;;;;;;;;;;5031052;28;20030;-74
2022/11/26 03:16:13;;;;;;;31.65;10.40;;;;;;;;;;5030967;28;20033;-74
2022/11/26 03:18:39;;;;;;;26.00;10.70;;;;;;;;;;5013370;28;20053;-74
2022/11/26 03:21:05;;;;;;;25.70;9.90;;;;;;;;;;5029246;28;20040;-75
2022/11/26 03:23:31;;;;;;;25.60;11.15;;;;;;;;;;4993838;28;20046;-75
2022/11/26 03:25:57;;;;;;;31.50;10.65;;;;;;;;;;4995135;28;20368;-74
2022/11/26 03:28:23;;;;;;;32.28;11.23;;;;;;;;;;5031748;28;20033;-74
2022/11/26 03:30:50;;;;;;;26.48;10.32;;;;;;;;;;5034535;28;20025;-74
2022/11/26 03:33:16;;;;;;;28.80;10.77;;;;;;;;;;5031708;28;20491;-74
2022/11/26 03:35:42;;;;;;;24.48;10.57;;;;;;;;;;5016361;28;20176;-74
2022/11/26 03:38:08;;;;;;;28.60;9.85;;;;;;;;;;5033934;28;20426;-74
2022/11/26 03:40:34;;;;;;;34.70;12.00;;;;;;;;;;5034320;28;20021;-74
2022/11/26 03:43:00;;;;;;;28.65;12.35;;;;;;;;;;5034218;28;20022;-74
2022/11/26 03:45:26;;;;;;;33.42;12.05;;;;;;;;;;5034291;28;20120;-75
2022/11/26 03:47:52;;;;;;;34.45;11.02;;;;;;;;;;5034112;28;20029;-74
2022/11/26 03:50:18;;;;;;;33.60;10.75;;;;;;;;;;5016579;28;20030;-74
2022/11/26 03:52:44;;;;;;;27.85;11.55;;;;;;;;;;5034108;28;20029;-74
2022/11/26 03:55:10;;;;;;;25.63;11.00;;;;;;;;;;5034650;28;20041;-74
2022/11/26 03:57:36;;;;;;;30.45;10.80;;;;;;;;;;5033777;28;20029;-74
2022/11/26 04:00:04;;;;;;;33.78;10.27;;;;;;;;;;5033978;28;20029;-74
2022/11/26 04:02:30;;;;;;;34.53;11.23;;;;;;;;;;5033768;28;20376;-75
2022/11/26 04:04:56;;;;;;;29.90;10.23;;;;;;;;;;5015784;28;20083;-74
2022/11/26 04:07:22;;;;;;;25.45;10.57;;;;;;;;;;5033794;28;20037;-75
2022/11/26 04:09:48;;;;;;;39.00;11.55;;;;;;;;;;5033705;28;20396;-75
2022/11/26 04:12:14;;;;;;;33.85;12.43;;;;;;;;;;5033732;28;20049;-75
2022/11/26 04:14:40;;;;;;;32.38;11.80;;;;;;;;;;5033568;28;20048;-74
2022/11/26 04:17:06;;;;;;;31.15;11.38;;;;;;;;;;5033381;28;20040;-74
2022/11/26 04:19:32;;;;;;;32.35;12.00;;;;;;;;;;5033634;28;20025;-74
2022/11/26 04:21:58;;;;;;;30.30;10.98;;;;;;;;;;5033384;28;20321;-74
2022/11/26 04:24:24;;;;;;;28.98;10.50;;;;;;;;;;5033408;28;20033;-74
2022/11/26 04:26:50;;;;;;;30.80;11.38;;;;;;;;;;5033270;28;20029;-74
2022/11/26 04:29:16;;;;;;;27.75;11.52;;;;;;;;;;5033335;28;20506;-74
2022/11/26 04:31:42;;;;;;;39.60;12.93;;;;;;;;;;5031043;28;20120;-74
2022/11/26 04:34:08;;;;;;;33.75;11.05;;;;;;;;;;5016430;28;20041;-74
2022/11/26 04:36:34;;;;;;;32.67;12.77;;;;;;;;;;4995823;28;20088;-74
2022/11/26 04:39:00;;;;;;;27.23;10.80;;;;;;;;;;5013305;28;20037;-74
2022/11/26 04:41:26;;;;;;;25.90;12.38;;;;;;;;;;4979601;28;20071;-74
2022/11/26 04:43:52;;;;;;;32.50;12.27;;;;;;;;;;5013267;28;20102;-74
2022/11/26 04:46:19;;;;;;;28.52;12.88;;;;;;;;;;5013286;28;20029;-74
2022/11/26 04:48:45;;;;;;;33.17;12.32;;;;;;;;;;4995676;28;20034;-74
2022/11/26 04:51:11;;;;;;;28.02;11.75;;;;;;;;;;5007664;28;20022;-74
2022/11/26 04:53:37;;;;;;;34.08;12.73;;;;;;;;;;5032814;28;20022;-74
2022/11/26 04:56:03;;;;;;;28.92;11.95;;;;;;;;;;5032920;28;20037;-74
2022/11/26 04:58:29;;;;;;;42.50;13.88;;;;;;;;;;5032747;28;20063;-74
2022/11/26 05:00:55;;;;;;;34.08;13.27;;;;;;;;;;5032780;28;20021;-74
2022/11/26 05:03:21;;;;;;;32.67;13.60;;;;;;;;;;5032648;28;20487;-74
2022/11/26 05:05:47;;;;;;;34.50;12.95;;;;;;;;;;5032625;28;20028;-74
2022/11/26 05:08:13;;;;;;;32.20;13.45;;;;;;;;;;5032545;28;20143;-75
2022/11/26 05:10:39;;;;;;;46.17;13.82;;;;;;;;;;5032780;28;20457;-74
2022/11/26 05:13:05;;;;;;;36.85;12.77;;;;;;;;;;5032515;28;20041;-75
2022/11/26 05:15:31;;;;;;;32.38;13.93;;;;;;;;;;5032541;28;20029;-74
2022/11/26 05:17:57;;;;;;;33.75;13.63;;;;;;;;;;5032201;28;20080;-74
2022/11/26 05:20:23;;;;;;;32.95;13.00;;;;;;;;;;5032521;28;20080;-74
2022/11/26 05:22:50;;;;;;;42.55;14.63;;;;;;;;;;5032263;28;20133;-74
2022/11/26 05:25:16;;;;;;;41.17;15.65;;;;;;;;;;5032250;28;20156;-74
2022/11/26 05:27:42;;;;;;;48.65;15.88;;;;;;;;;;5032255;28;20459;-74
2022/11/26 05:30:08;;;;;;;38.55;13.77;;;;;;;;;;5032343;28;20032;-74
2022/11/26 05:32:34;;;;;;;36.20;15.45;;;;;;;;;;5029631;28;20045;-74
2022/11/26 05:35:00;;;;;;;45.72;15.80;;;;;;;;;;5014118;28;20060;-74
2022/11/26 05:37:26;;;;;;;58.45;19.08;;;;;;;;;;5014466;28;20041;-74
2022/11/26 05:39:52;;;;;;;50.72;16.83;;;;;;;;;;5031779;28;20026;-74
2022/11/26 05:42:18;;;;;;;44.92;16.15;;;;;;;;;;5032118;28;20026;-74
2022/11/26 05:44:44;;;;;;;51.72;19.00;;;;;;;;;;5014133;28;20045;-74
2022/11/26 05:47:10;;;;;;;46.00;15.82;;;;;;;;;;5031882;28;20035;-75
2022/11/26 05:49:36;;;;;;;52.38;16.42;;;;;;;;;;5031446;28;20053;-75
2022/11/26 05:52:03;;;;;;;36.90;15.85;;;;;;;;;;5014291;28;20033;-74
2022/11/26 05:54:29;;;;;;;48.40;16.13;;;;;;;;;;5014121;28;20453;-74
2022/11/26 05:56:55;;;;;;;49.75;16.25;;;;;;;;;;5031793;28;20479;-74
2022/11/26 05:59:21;;;;;;;47.17;18.55;;;;;;;;;;5031671;28;20025;-74
2022/11/26 06:01:47;;;;;;;36.08;15.32;;;;;;;;;;5031748;28;20029;-74
2022/11/26 06:04:13;;;;;;;44.78;15.65;;;;;;;;;;5013992;28;20025;-74
2022/11/26 06:06:39;;;;;;;42.03;15.77;;;;;;;;;;5013829;28;20034;-74
2022/11/26 06:09:05;;;;;;;37.70;15.40;;;;;;;;;;5031585;28;20053;-74
2022/11/26 06:11:31;;;;;;;44.22;16.70;;;;;;;;;;5031749;28;20057;-74
2022/11/26 06:13:57;;;;;;;47.08;16.85;;;;;;;;;;5013939;28;20468;-74
2022/11/26 06:16:23;;;;;;;46.53;16.83;;;;;;;;;;5031600;28;20396;-74
2022/11/26 06:18:49;;;;;;;50.15;18.30;;;;;;;;;;5031488;28;20025;-74
2022/11/26 06:21:15;;;;;;;54.22;17.27;;;;;;;;;;5031463;28;20383;-74
2022/11/26 06:23:41;;;;;;;59.38;21.05;;;;;;;;;;5031298;28;20033;-74
2022/11/26 06:26:11;;;;;;;64.80;20.48;;;;;;;;;;5013640;28;20029;-74
2022/11/26 06:28:37;;;;;;;56.50;20.80;;;;;;;;;;5031297;28;20059;-74
2022/11/26 06:31:03;;;;;;;61.35;19.92;;;;;;;;;;5031310;28;20480;-74
2022/11/26 06:33:30;;;;;;;49.60;19.27;;;;;;;;;;5028085;28;20051;-74
2022/11/26 06:36:02;;;;;;;50.60;20.95;;;;;;;;;;5031493;28;20029;-74
2022/11/26 06:38:28;;;;;;;55.72;18.45;;;;;;;;;;5013069;28;20079;-74
2022/11/26 06:41:01;;;;;;;68.82;21.33;;;;;;;;;;5031440;28;20049;-74
2022/11/26 06:43:28;;;;;;;46.65;20.50;;;;;;;;;;5031189;28;20080;-74
2022/11/26 06:45:54;;;;;;;65.22;21.92;;;;;;;;;;5031390;28;20030;-74
2022/11/26 06:48:24;;;;;;;50.72;19.30;;;;;;;;;;5031186;28;20025;-74
2022/11/26 06:50:50;;;;;;;55.75;19.83;;;;;;;;;;5031273;28;20021;-74
2022/11/26 06:53:17;;;;;;;80.80;23.42;;;;;;;;;;5031245;28;20462;-75
2022/11/26 06:55:43;;;;;;;54.33;20.13;;;;;;;;;;5031277;28;20043;-74
2022/11/26 06:58:09;;;;;;;72.32;21.50;;;;;;;;;;5031048;28;20088;-74
2022/11/26 07:00:35;;;;;;;61.05;19.92;;;;;;;;;;5032200;28;20719;-75
2022/11/26 07:03:01;;;;;;;67.82;21.80;;;;;;;;;;5017031;28;20473;-74
2022/11/26 07:05:27;;;;;;;79.88;23.42;;;;;;;;;;5017128;28;20061;-74
2022/11/26 07:07:53;;;;;;;57.17;21.52;;;;;;;;;;5034676;28;20053;-74
2022/11/26 07:10:19;;;;;;;46.80;19.20;;;;;;;;;;5035025;28;20030;-74
2022/11/26 07:12:45;;;;;;;62.85;21.20;;;;;;;;;;5034775;28;20040;-74
2022/11/26 07:15:11;;;;;;;67.53;21.90;;;;;;;;;;5034954;28;20030;-74
2022/11/26 07:17:37;;;;;;;70.88;22.67;;;;;;;;;;5034580;28;20029;-74
2022/11/26 07:20:04;;;;;;;57.10;20.08;;;;;;;;;;5034824;28;20116;-74
2022/11/26 07:22:30;;;;;;;47.70;19.85;;;;;;;;;;5034432;28;20038;-74
2022/11/26 07:24:56;;;;;;;55.10;19.58;;;;;;;;;;5025872;28;20030;-74
2022/11/26 07:27:22;;;;;;;58.17;20.50;;;;;;;;;;5023919;28;20083;-74
2022/11/26 07:29:48;;;;;;;50.53;20.92;;;;;;;;;;5023407;28;20029;-74
2022/11/26 07:32:14;;;;;;;57.60;19.98;;;;;;;;;;5022944;28;20548;-74
2022/11/26 07:34:40;;;;;;;47.92;18.60;;;;;;;;;;5007538;28;20112;-75
2022/11/26 07:37:06;;;;;;;54.67;18.75;;;;;;;;;;5024386;28;20059;-74
2022/11/26 07:39:32;;;;;;;55.00;19.60;;;;;;;;;;5027892;28;20034;-74
2022/11/26 07:41:58;;;;;;;50.83;22.08;;;;;;;;;;5011749;28;20484;-74
2022/11/26 07:44:24;;;;;;;63.60;20.88;;;;;;;;;;4997360;28;20038;-74
2022/11/26 07:46:50;;;;;;;55.08;20.40;;;;;;;;;;5007918;28;20124;-74
2022/11/26 07:49:16;;;;;;;55.28;20.30;;;;;;;;;;5019418;28;20053;-75
2022/11/26 07:51:42;;;;;;;61.42;19.60;;;;;;;;;;5019979;28;20032;-75
2022/11/26 07:54:08;;;;;;;57.47;19.80;;;;;;;;;;5020067;28;20043;-74
2022/11/26 07:56:35;;;;;;;76.43;24.85;;;;;;;;;;5026958;28;20033;-75
2022/11/26 07:59:01;;;;;;;56.67;20.38;;;;;;;;;;5024162;28;20025;-74
2022/11/26 08:01:30;;;;;;;63.85;22.27;;;;;;;;;;5020524;28;20042;-74
2022/11/26 08:03:57;;;;;;;46.30;18.88;;;;;;;;;;5020371;28;20022;-74
2022/11/26 08:06:24;;;;;;;67.68;20.10;;;;;;;;;;5022286;28;20202;-75
2022/11/26 08:08:50;;;;;;;58.08;21.27;;;;;;;;;;5018839;28;20070;-74
2022/11/26 08:11:24;;;;;;;63.45;22.25;;;;;;;;;;5018536;28;20111;-75
2022/11/26 08:13:54;;;;;;;53.22;20.40;;;;;;;;;;5020680;28;20101;-75
2022/11/26 08:16:20;;;;;;;64.10;21.40;;;;;;;;;;5018922;28;20485;-74
2022/11/26 08:18:46;;;;;;;59.10;19.92;;;;;;;;;;5025592;28;20025;-75
2022/11/26 08:21:12;;;;;;;76.90;22.67;;;;;;;;;;5027322;28;20040;-75
2022/11/26 08:23:38;;;;;;;63.90;21.00;;;;;;;;;;5026461;28;20025;-75
2022/11/26 08:26:11;;;;;;;67.97;21.02;;;;;;;;;;5022490;28;20744;-75
2022/11/26 08:28:37;;;;;;;55.65;19.73;;;;;;;;;;5025961;28;20029;-75
2022/11/26 08:31:04;;;;;;;58.08;19.90;;;;;;;;;;5025671;28;20041;-75
2022/11/26 08:33:31;;;;;;;79.95;22.27;;;;;;;;;;5025691;28;20095;-74
2022/11/26 08:35:57;;;;;;;61.25;19.52;;;;;;;;;;5008459;28;20364;-75
2022/11/26 08:38:23;;;;;;;62.67;19.38;;;;;;;;;;5022246;28;20095;-75
2022/11/26 08:40:50;;;;;;;69.40;21.30;;;;;;;;;;5025793;28;20091;-75
2022/11/26 08:43:16;;;;;;;60.83;19.55;;;;;;;;;;5020739;28;20064;-75
2022/11/26 08:45:42;;;;;;;74.50;21.50;;;;;;;;;;5020708;28;20018;-75
2022/11/26 08:48:08;;;;;;;74.65;20.80;;;;;;;;;;5018944;28;20029;-75
2022/11/26 08:50:34;;;;;;;61.70;19.08;;;;;;;;;;5018281;28;20046;-75
2022/11/26 08:53:00;;;;;;;47.53;18.80;;;;;;;;;;5007079;28;20143;-75
2022/11/26 08:55:26;;;;;;;52.92;19.20;;;;;;;;;;5022896;28;20513;-75
2022/11/26 08:57:52;;;;;;;67.07;19.23;;;;;;;;;;5020367;28;20121;-75
2022/11/26 09:00:19;;;;;;;66.22;20.55;;;;;;;;;;5026962;28;20041;-75
2022/11/26 09:02:45;;;;;;;63.25;20.38;;;;;;;;;;5020701;28;20062;-75
2022/11/26 09:05:11;;;;;;;56.85;17.50;;;;;;;;;;5026139;28;20042;-75
2022/11/26 09:07:37;;;;;;;58.22;18.75;;;;;;;;;;5024152;28;20037;-75
2022/11/26 09:10:03;;;;;;;57.28;19.15;;;;;;;;;;5026752;28;20089;-75
2022/11/26 09:12:29;;;;;;;62.65;19.52;;;;;;;;;;4992765;28;20099;-75
2022/11/26 09:14:55;;;;;;;73.97;20.52;;;;;;;;;;5026861;28;20033;-75
2022/11/26 09:17:21;;;;;;;58.35;18.50;;;;;;;;;;5019882;28;20038;-75
2022/11/26 09:19:47;;;;;;;57.08;18.23;;;;;;;;;;5021329;28;20022;-75
2022/11/26 09:22:13;;;;;;;66.43;19.38;;;;;;;;;;5024523;28;20033;-75
2022/11/26 09:24:40;;;;;;;54.50;18.35;;;;;;;;;;5018053;28;20029;-75
2022/11/26 09:27:06;;;;;;;65.80;20.38;;;;;;;;;;5004029;28;20033;-75
2022/11/26 09:29:32;;;;;;;58.90;18.75;;;;;;;;;;5032419;28;20060;-75
2022/11/26 09:31:58;;;;;;;61.75;19.85;;;;;;;;;;5030317;28;20029;-76
2022/11/26 09:34:24;;;;;;;60.53;18.73;;;;;;;;;;5021060;28;20041;-75
2022/11/26 09:36:50;;;;;;;52.55;18.60;;;;;;;;;;5031217;28;20041;-76
2022/11/26 09:39:17;;;;;;;51.90;16.95;;;;;;;;;;5036557;28;20061;-75
2022/11/26 09:41:52;;;;;;;62.85;18.35;;;;;;;;;;5032434;28;20033;-75
2022/11/26 09:44:21;;;;;;;62.03;18.30;;;;;;;;;;5032159;28;20026;-76
2022/11/26 09:46:56;;;;;;;60.13;17.25;;;;;;;;;;5026313;28;20022;-75
2022/11/26 09:49:23;;;;;;;58.40;17.85;;;;;;;;;;5031134;28;20137;-75
2022/11/26 09:51:52;;;;;;;51.08;17.70;;;;;;;;;;5031000;28;20025;-76
2022/11/26 09:54:21;;;;;;;47.92;17.95;;;;;;;;;;5031299;28;20026;-75
2022/11/26 09:56:52;;;;;;;75.95;15.88;;;;;;;;;;5031865;28;20021;-75
2022/11/26 09:59:18;;;;;;;47.03;15.57;;;;;;;;;;5030062;28;20021;-75
2022/11/26 10:01:44;;;;;;;59.40;15.63;;;;;;;;;;5028153;28;20030;-76
2022/11/26 10:04:18;;;;;;;55.97;15.75;;;;;;;;;;5031748;28;20018;-76
2022/11/26 10:06:59;;;;;;;50.75;17.48;;;;;;;;;;5031944;28;20029;-74
2022/11/26 10:09:35;;;;;;;61.30;16.85;;;;;;;;;;5023148;28;20046;-74
2022/11/26 10:12:13;;;;;;;51.42;15.65;;;;;;;;;;5022349;28;20527;-74
2022/11/26 10:14:58;;;;;;;49.58;15.57;;;;;;;;;;5016297;28;20056;-74
2022/11/26 10:17:24;;;;;;;48.30;16.00;;;;;;;;;;5019561;28;20552;-74
2022/11/26 10:20:09;;;;;;;56.25;16.85;;;;;;;;;;5022384;28;20032;-74
2022/11/26 10:22:37;;;;;;;50.20;14.93;;;;;;;;;;5023013;28;20428;-75
2022/11/26 10:25:13;;;;;;;47.80;16.02;;;;;;;;;;5037414;28;20091;-74
2022/11/26 10:27:39;;;;;;;44.80;15.40;;;;;;;;;;5038359;28;20425;-75
2022/11/26 10:30:25;;;;;;;51.58;15.18;;;;;;;;;;5031523;28;20525;-75
2022/11/26 10:32:51;;;;;;;58.38;15.50;;;;;;;;;;5028639;28;20021;-74
2022/11/26 10:35:20;;;;;;;48.30;15.90;;;;;;;;;;5033601;28;20783;-75
2022/11/26 10:37:46;;;;;;;54.80;15.63;;;;;;;;;;5017338;28;20034;-75
2022/11/26 10:40:26;;;;;;;47.78;14.55;;;;;;;;;;5035705;28;20018;-74
2022/11/26 10:42:58;;;;;;;52.22;13.95;;;;;;;;;;5045683;28;20329;-74
2022/11/26 10:45:25;;;;;;;50.15;15.05;;;;;;;;;;5033573;28;20034;-74
2022/11/26 10:47:51;;;;;;;49.85;13.65;;;;;;;;;;5027929;28;20025;-74
2022/11/26 10:50:25;;;;;;;40.55;14.48;;;;;;;;;;5028892;28;20505;-75
2022/11/26 10:52:51;;;;;;;46.70;13.82;;;;;;;;;;5024361;28;20387;-75
2022/11/26 10:55:20;;;;;;;54.17;14.00;;;;;;;;;;5025126;28;20103;-74
2022/11/26 10:58:04;;;;;;;50.42;13.77;;;;;;;;;;5028178;28;20104;-73
2022/11/26 11:00:38;;;;;;;51.53;14.40;;;;;;;;;;5020690;28;20109;-77
2022/11/26 11:03:22;;;;;;;39.92;12.07;;;;;;;;;;5016331;28;20030;-77
2022/11/26 11:05:48;;;;;;;42.70;12.68;;;;;;;;;;4998884;28;20041;-77
2022/11/26 11:08:31;;;;;;;41.40;12.30;;;;;;;;;;4998190;28;20077;-76
2022/11/26 11:10:57;;;;;;;;;;;;;;;;;;5016300;28;20172;-77
2022/11/26 11:13:24;;;;;;;42.47;11.88;;;;;;;;;;5035797;28;20001;-77
2022/11/26 11:15:59;;;;;;;43.65;11.00;;;;;;;;;;5014923;28;20149;-77
2022/11/26 11:18:25;;;;;;;37.90;11.38;;;;;;;;;;5026025;28;20022;-76
2022/11/26 11:20:54;;;;;;;40.38;12.18;;;;;;;;;;5018985;28;20475;-77
2022/11/26 11:23:25;;;;;;;41.08;11.82;;;;;;;;;;5026228;28;20029;-76
2022/11/26 11:25:59;;;;;;;38.72;11.73;;;;;;;;;;5032007;28;20499;-76
2022/11/26 11:28:27;;;;;;;32.85;10.40;;;;;;;;;;5005430;28;20030;-76
2022/11/26 11:30:59;;;;;;;35.15;10.07;;;;;;;;;;5023341;28;20075;-76
2022/11/26 11:33:26;;;;;;;34.08;10.23;;;;;;;;;;5025095;28;20403;-76
2022/11/26 11:35:58;;;;;;;36.15;10.00;;;;;;;;;;5025174;28;20028;-77
2022/11/26 11:38:26;;;;;;;33.75;10.63;;;;;;;;;;5007360;28;20392;-76
2022/11/26 11:40:52;;;;;;;44.00;10.63;;;;;;;;;;5004673;28;20030;-76
2022/11/26 11:43:19;;;;;;;38.80;10.68;;;;;;;;;;5030154;28;20037;-76
2022/11/26 11:46:09;;;;;;;38.20;9.50;;;;;;;;;;5022277;28;20136;-76
2022/11/26 11:48:42;;;;;;;38.63;9.48;;;;;;;;;;5027897;28;20105;-74
2022/11/26 11:51:08;;;;;;;34.97;9.32;;;;;;;;;;5003362;28;20049;-74
2022/11/26 11:53:37;;;;;;;33.50;9.70;;;;;;;;;;5026534;28;20072;-75
2022/11/26 11:56:22;;;;;;;38.95;10.25;;;;;;;;;;5026765;28;20025;-74
2022/11/26 11:58:57;;;;;;;29.00;9.70;;;;;;;;;;5031259;28;20029;-75
2022/11/26 12:01:23;;;;;;;32.63;8.45;;;;;;;;;;5016531;28;20033;-76
2022/11/26 12:04:02;;;;;;;27.35;9.13;;;;;;;;;;5023720;28;20473;-80
2022/11/26 12:06:39;;;;;;;28.27;8.13;;;;;;;;;;5029487;28;20033;-76
2022/11/26 12:09:17;;;;;;;32.45;8.95;;;;;;;;;;5033834;28;20081;-76
2022/11/26 12:11:43;;;;;;;31.30;9.25;;;;;;;;;;5033396;28;20025;-76
2022/11/26 12:14:12;;;;;;;30.73;9.25;;;;;;;;;;5033449;28;20041;-76
2022/11/26 12:16:40;;;;;;;29.27;8.48;;;;;;;;;;5033998;28;20022;-76
2022/11/26 12:19:16;;;;;;;28.98;8.45;;;;;;;;;;5033193;28;20021;-76
2022/11/26 12:21:48;;;;;;;29.48;8.30;;;;;;;;;;5027960;28;20023;-76
2022/11/26 12:24:33;;;;;;;32.60;8.45;;;;;;;;;;4996293;28;20034;-76
2022/11/26 12:27:03;;;;;;;31.77;8.82;;;;;;;;;;5022440;28;20500;-76
2022/11/26 12:29:36;;;;;;;36.30;8.20;;;;;;;;;;5033942;28;20022;-75
2022/11/26 12:32:11;;;;;;;29.73;8.75;;;;;;;;;;5031261;28;20029;-75
2022/11/26 12:34:40;;;;;;;30.00;8.70;;;;;;;;;;5033322;28;20022;-76
2022/11/26 12:37:14;;;;;;;23.52;8.43;;;;;;;;;;5033617;28;20040;-76
2022/11/26 12:39:58;;;;;;;26.88;7.35;;;;;;;;;;5033277;28;20029;-76
2022/11/26 12:42:44;;;;;;;37.00;8.02;;;;;;;;;;5033883;28;20104;-76
2022/11/26 12:45:13;;;;;;;24.55;8.32;;;;;;;;;;5033847;28;20375;-76
2022/11/26 12:47:42;;;;;;;41.15;8.73;;;;;;;;;;5033821;28;20078;-75
2022/11/26 12:50:11;;;;;;;35.85;9.85;;;;;;;;;;5010353;28;20444;-75
2022/11/26 12:52:52;;;;;;;32.60;8.10;;;;;;;;;;5013879;28;20040;-76
2022/11/26 12:55:24;;;;;;;30.63;8.45;;;;;;;;;;5013829;28;20041;-76
2022/11/26 12:58:01;;;;;;;27.48;8.13;;;;;;;;;;5013525;28;20468;-76
2022/11/26 13:00:30;;;;;;;25.13;7.57;;;;;;;;;;5013796;28;20022;-76
2022/11/26 13:02:56;;;;;;;38.03;7.53;;;;;;;;;;5013481;28;20029;-76
2022/11/26 13:05:29;;;;;;;26.85;7.70;;;;;;;;;;5019273;28;20026;-76
2022/11/26 13:08:01;;;;;;;22.90;7.43;;;;;;;;;;5032877;28;20103;-76
2022/11/26 13:10:30;;;;;;;25.35;6.72;;;;;;;;;;5033133;28;20041;-75
2022/11/26 13:13:17;;;;;;;32.20;7.65;;;;;;;;;;5033180;28;20029;-75
2022/11/26 13:15:52;;;;;;;22.83;6.85;;;;;;;;;;5033060;28;20068;-76
2022/11/26 13:18:23;;;;;;;29.55;7.75;;;;;;;;;;5032603;28;20516;-77
2022/11/26 13:20:55;;;;;;;29.08;6.65;;;;;;;;;;5031930;28;20018;-76
2022/11/26 13:23:42;;;;;;;23.30;6.38;;;;;;;;;;5020557;28;20472;-76
2022/11/26 13:26:08;;;;;;;31.08;5.53;;;;;;;;;;5029758;28;20017;-76
2022/11/26 13:28:52;;;;;;;23.42;5.57;;;;;;;;;;5022978;28;20079;-76
2022/11/26 13:31:37;;;;;;;38.85;6.45;;;;;;;;;;5021904;28;20029;-76
2022/11/26 13:34:10;;;;;;;32.72;7.03;;;;;;;;;;5030204;28;20029;-76
2022/11/26 13:36:42;;;;;;;15.88;5.18;;;;;;;;;;5013100;28;20021;-76
2022/11/26 13:39:29;;;;;;;19.63;5.30;;;;;;;;;;4999586;28;20491;-76
2022/11/26 13:41:55;;;;;;;23.00;5.78;;;;;;;;;;5002143;28;20065;-76
2022/11/26 13:44:40;;;;;;;24.73;5.45;;;;;;;;;;5012450;28;20083;-76
2022/11/26 13:47:12;;;;;;;23.40;5.60;;;;;;;;;;5012499;28;20037;-76
2022/11/26 13:49:38;;;;;;;21.83;5.35;;;;;;;;;;5014654;28;20109;-76
2022/11/26 13:52:09;;;;;;;21.40;5.32;;;;;;;;;;5033056;28;20057;-75
2022/11/26 13:54:39;;;;;;;18.88;5.95;;;;;;;;;;5015348;28;20029;-76
2022/11/26 13:57:10;;;;;;;27.88;6.78;;;;;;;;;;5014909;28;20455;-76
2022/11/26 13:59:43;;;;;;;30.70;7.03;;;;;;;;;;5032693;28;20522;-76
2022/11/26 14:02:46;;;;;;;25.67;6.28;;;;;;;;;;5032769;28;20104;-76
2022/11/26 14:05:14;;;;;;;25.33;6.15;;;;;;;;;;4975883;28;20038;-75
2022/11/26 14:07:40;;;;;;;27.10;6.20;;;;;;;;;;5024777;28;20056;-76
2022/11/26 14:10:08;;;;;;;20.70;6.78;;;;;;;;;;5031937;28;20053;-76
2022/11/26 14:12:53;;;;;;;35.92;7.43;;;;;;;;;;5032592;28;20040;-76
2022/11/26 14:15:37;;;;;;;28.42;6.20;;;;;;;;;;5032486;28;20052;-76
2022/11/26 14:18:04;;;;;;;23.33;6.05;;;;;;;;;;5032274;28;20071;-76
2022/11/26 14:20:30;;;;;;;34.08;9.18;;;;;;;;;;5031851;28;20072;-76
2022/11/26 14:22:56;;;;;;;30.70;11.00;;;;;;;;;;5022791;28;20387;-76
2022/11/26 14:25:37;;;;;;;36.10;12.57;;;;;;;;;;5033237;28;20104;-76
2022/11/26 14:28:08;;;;;;;29.15;8.15;;;;;;;;;;5014508;28;20410;-76
2022/11/26 14:30:35;;;;;;;33.17;8.43;;;;;;;;;;5032108;28;20033;-75
2022/11/26 14:33:08;;;;;;;26.02;6.55;;;;;;;;;;5027319;28;20033;-76